createdAt,value
2023-05-05T00:00:02.511Z,22.2308
2023-05-05T00:01:03.332Z,26.9231
2023-05-05T00:02:04.914Z,23.5385
2023-05-05T00:03:06.764Z,8.7692
2023-05-05T00:04:08.218Z,12.1538
2023-05-05T00:05:09.886Z,24.4615
2023-05-05T00:06:11.593Z,28.3846
2023-05-05T00:07:13.147Z,29.0000
2023-05-05T00:08:14.794Z,24.3077
2023-05-05T00:09:16.424Z,27.0769
2023-05-05T00:10:18.090Z,24.2308
2023-05-05T00:11:19.760Z,21.6154
2023-05-05T00:12:21.331Z,25.2308
2023-05-05T00:13:23.048Z,25.4615
2023-05-05T00:14:24.659Z,21.6923
2023-05-05T00:15:26.307Z,11.1538
2023-05-05T00:16:28.081Z,9.3077
2023-05-05T00:17:29.610Z,17.4615
2023-05-05T00:18:31.276Z,25.6923
2023-05-05T00:19:32.893Z,22.6923
2023-05-05T00:20:34.583Z,21.6923
2023-05-05T00:21:36.244Z,20.0769
2023-05-05T00:22:37.862Z,18.8462
2023-05-05T00:23:39.472Z,20.0769
2023-05-05T00:24:41.217Z,22.3077
2023-05-05T00:25:42.754Z,22.0000
2023-05-05T00:26:44.490Z,19.1538
2023-05-05T00:27:46.152Z,9.8462
2023-05-05T00:28:47.770Z,11.9231
2023-05-05T00:29:49.331Z,19.6154
2023-05-05T00:30:51.070Z,24.6923
2023-05-05T00:31:52.665Z,22.0000
2023-05-05T00:32:54.467Z,18.0000
2023-05-05T00:33:55.908Z,18.9231
2023-05-05T00:34:57.673Z,19.2308
2023-05-05T00:35:59.281Z,20.7692
2023-05-05T00:37:00.929Z,21.1538
2023-05-05T00:38:02.482Z,18.3077
2023-05-05T00:39:04.207Z,20.7692
2023-05-05T00:40:05.897Z,16.8462
2023-05-05T00:41:07.485Z,10.0769
2023-05-05T00:42:10.493Z,15.6923
2023-05-05T00:43:10.692Z,19.2308
2023-05-05T00:44:12.394Z,20.3846
2023-05-05T00:45:15.004Z,18.6923
2023-05-05T00:46:15.704Z,12.9231
2023-05-05T00:47:17.389Z,7.6923
2023-05-05T00:48:19.078Z,9.0769
2023-05-05T00:49:20.666Z,12.4615
2023-05-05T00:50:22.255Z,14.8462
2023-05-05T00:51:23.991Z,11.8462
2023-05-05T00:52:25.601Z,12.1538
2023-05-05T00:53:27.226Z,9.5385
2023-05-05T00:54:28.824Z,17.0769
2023-05-05T00:55:30.504Z,10.6923
2023-05-05T00:56:32.121Z,12.0000
2023-05-05T00:57:33.830Z,5.6154
2023-05-05T00:58:35.355Z,2.9231
2023-05-05T00:59:37.082Z,9.1538
2023-05-05T01:00:38.679Z,14.6154
2023-05-05T01:01:41.491Z,19.6923
2023-05-05T01:02:42.458Z,13.3846
2023-05-05T01:03:43.845Z,10.6154
2023-05-05T01:04:46.139Z,6.0000
2023-05-05T01:05:46.883Z,2.4615
2023-05-05T01:06:48.494Z,10.4615
2023-05-05T01:07:50.130Z,21.4615
2023-05-05T01:08:51.794Z,22.8462
2023-05-05T01:10:04.201Z,19.9231
2023-05-05T01:10:55.089Z,15.0000
2023-05-05T01:11:56.780Z,12.4615
2023-05-05T01:12:58.436Z,8.6923
2023-05-05T01:13:59.967Z,8.0000
2023-05-05T01:15:01.639Z,10.6154
2023-05-05T01:16:03.337Z,20.6923
2023-05-05T01:17:04.951Z,21.9231
2023-05-05T01:18:06.764Z,24.6923
2023-05-05T01:19:08.200Z,21.6154
2023-05-05T01:20:10.013Z,16.7692
2023-05-05T01:21:11.495Z,10.8462
2023-05-05T01:22:13.129Z,5.3077
2023-05-05T01:23:14.786Z,10.3846
2023-05-05T01:24:16.386Z,20.7692
2023-05-05T01:25:18.073Z,22.0000
2023-05-05T01:26:19.691Z,22.5385
2023-05-05T01:27:21.367Z,22.3077
2023-05-05T01:28:23.021Z,12.3846
2023-05-05T01:29:24.643Z,10.4615
2023-05-05T01:30:26.257Z,5.9231
2023-05-05T01:31:28.032Z,15.2308
2023-05-05T01:32:29.635Z,25.0769
2023-05-05T01:33:31.556Z,28.8462
2023-05-05T01:34:32.892Z,20.6923
2023-05-05T01:35:34.515Z,18.0769
2023-05-05T01:36:36.150Z,17.1538
2023-05-05T01:37:37.868Z,8.6154
2023-05-05T01:38:39.498Z,6.6923
2023-05-05T01:39:41.107Z,22.3077
2023-05-05T01:40:42.766Z,33.6923
2023-05-05T01:41:44.439Z,30.0000
2023-05-05T01:42:46.063Z,25.0000
2023-05-05T01:43:47.739Z,23.6923
2023-05-05T01:44:49.241Z,12.9231
2023-05-05T01:45:50.980Z,5.7692
2023-05-05T01:46:52.560Z,12.0000
2023-05-05T01:47:54.273Z,22.2308
2023-05-05T01:48:55.836Z,30.1538
2023-05-05T01:49:57.605Z,32.1538
2023-05-05T01:50:59.158Z,28.6923
2023-05-05T01:52:00.870Z,27.8462
2023-05-05T01:53:02.473Z,22.5385
2023-05-05T01:54:04.958Z,15.2308
2023-05-05T01:55:05.800Z,13.1538
2023-05-05T01:56:07.365Z,21.7692
2023-05-05T01:57:09.010Z,28.4615
2023-05-05T01:58:10.781Z,27.3846
2023-05-05T01:59:12.334Z,18.8462
2023-05-05T02:00:13.997Z,22.8462
2023-05-05T02:01:15.604Z,13.9231
2023-05-05T02:02:17.266Z,18.9231
2023-05-05T02:03:18.969Z,17.6154
2023-05-05T02:04:20.665Z,26.7692
2023-05-05T02:05:22.198Z,30.6923
2023-05-05T02:06:23.820Z,29.2308
2023-05-05T02:07:25.429Z,21.0769
2023-05-05T02:08:27.185Z,16.6923
2023-05-05T02:09:28.754Z,12.3846
2023-05-05T02:10:30.415Z,8.3846
2023-05-05T02:11:32.004Z,11.5385
2023-05-05T02:12:33.719Z,20.6923
2023-05-05T02:13:35.368Z,29.1538
2023-05-05T02:14:36.997Z,28.2308
2023-05-05T02:15:38.678Z,22.6154
2023-05-05T02:16:40.284Z,20.6154
2023-05-05T02:17:41.939Z,10.8462
2023-05-05T02:18:43.565Z,5.4615
2023-05-05T02:19:45.250Z,12.0769
2023-05-05T02:20:46.860Z,16.7692
2023-05-05T02:21:48.561Z,24.8462
2023-05-05T02:22:50.131Z,28.1538
2023-05-05T02:23:51.922Z,28.4615
2023-05-05T02:24:53.467Z,22.9231
2023-05-05T02:25:55.018Z,14.0000
2023-05-05T02:26:56.816Z,12.9231
2023-05-05T02:27:58.319Z,15.5385
2023-05-05T02:29:00.031Z,19.2308
2023-05-05T02:30:01.654Z,23.2308
2023-05-05T02:31:03.294Z,25.8462
2023-05-05T02:32:04.986Z,29.6154
2023-05-05T02:33:06.715Z,18.5385
2023-05-05T02:34:08.226Z,8.9231
2023-05-05T02:35:09.896Z,4.5385
2023-05-05T02:36:11.536Z,11.2308
2023-05-05T02:37:13.214Z,15.0000
2023-05-05T02:38:14.783Z,23.1538
2023-05-05T02:39:16.426Z,25.4615
2023-05-05T02:40:18.082Z,27.2308
2023-05-05T02:41:19.690Z,23.6923
2023-05-05T02:42:21.923Z,17.3077
2023-05-05T02:43:23.124Z,16.3077
2023-05-05T02:44:24.626Z,9.3846
2023-05-05T02:45:26.855Z,11.8462
2023-05-05T02:46:27.963Z,20.2308
2023-05-05T02:47:29.628Z,23.3846
2023-05-05T02:48:31.148Z,23.0769
2023-05-05T02:49:32.885Z,19.3846
2023-05-05T02:50:34.498Z,12.6154
2023-05-05T02:51:36.232Z,9.5385
2023-05-05T02:52:37.824Z,3.2308
2023-05-05T02:53:39.443Z,12.3846
2023-05-05T02:54:41.436Z,22.0769
2023-05-05T02:55:42.753Z,19.3077
2023-05-05T02:56:44.359Z,22.8462
2023-05-05T02:57:46.001Z,26.6923
2023-05-05T02:58:47.620Z,15.3077
2023-05-05T02:59:49.339Z,19.3846
2023-05-05T03:00:50.953Z,5.2308
2023-05-05T03:01:52.736Z,6.3846
2023-05-05T03:02:54.339Z,11.8462
2023-05-05T03:03:55.976Z,21.0000
2023-05-05T03:04:57.556Z,25.7692
2023-05-05T03:05:59.208Z,20.3077
2023-05-05T03:07:00.767Z,29.8462
2023-05-05T03:08:02.533Z,24.5385
2023-05-05T03:09:04.171Z,17.8462
2023-05-05T03:10:06.203Z,8.1538
2023-05-05T03:11:07.386Z,6.6923
2023-05-05T03:12:09.096Z,12.0000
2023-05-05T03:13:10.858Z,19.5385
2023-05-05T03:14:12.369Z,23.6923
2023-05-05T03:15:14.071Z,28.9231
2023-05-05T03:16:15.780Z,29.7692
2023-05-05T03:17:17.310Z,23.4615
2023-05-05T03:18:18.988Z,15.0000
2023-05-05T03:19:20.617Z,12.9231
2023-05-05T03:20:22.302Z,7.9231
2023-05-05T03:21:23.963Z,10.2308
2023-05-05T03:22:25.536Z,17.8462
2023-05-05T03:23:27.175Z,21.2308
2023-05-05T03:24:28.850Z,20.6923
2023-05-05T03:25:30.557Z,22.2308
2023-05-05T03:26:32.487Z,24.0769
2023-05-05T03:27:33.796Z,18.8462
2023-05-05T03:28:35.363Z,7.3846
2023-05-05T03:29:37.096Z,8.0769
2023-05-05T03:30:38.781Z,8.3077
2023-05-05T03:31:41.102Z,13.8462
2023-05-05T03:32:42.082Z,24.3846
2023-05-05T03:33:43.649Z,25.1538
2023-05-05T03:34:45.245Z,22.6923
2023-05-05T03:35:46.976Z,16.0769
2023-05-05T03:36:48.582Z,21.0000
2023-05-05T03:37:50.971Z,8.0000
2023-05-05T03:38:51.816Z,6.5385
2023-05-05T03:39:53.605Z,9.0769
2023-05-05T03:40:55.195Z,17.6154
2023-05-05T03:41:56.853Z,26.6923
2023-05-05T03:42:58.434Z,29.1538
2023-05-05T03:44:00.185Z,26.0000
2023-05-05T03:45:01.733Z,20.6154
2023-05-05T03:46:03.469Z,10.2308
2023-05-05T03:47:06.000Z,12.2308
2023-05-05T03:48:06.752Z,13.3077
2023-05-05T03:49:08.311Z,17.6154
2023-05-05T03:50:10.170Z,24.4615
2023-05-05T03:51:11.636Z,26.7692
2023-05-05T03:52:15.093Z,33.2308
2023-05-05T03:53:14.976Z,22.0000
2023-05-05T03:54:16.552Z,18.3846
2023-05-05T03:55:18.186Z,13.2308
2023-05-05T03:56:19.873Z,8.7692
2023-05-05T03:57:21.468Z,20.0000
2023-05-05T03:58:24.011Z,27.9231
2023-05-05T03:59:24.741Z,30.3077
2023-05-05T04:00:26.464Z,39.8462
2023-05-05T04:01:28.859Z,30.6923
2023-05-05T04:02:29.855Z,24.0769
2023-05-05T04:03:31.651Z,11.6923
2023-05-05T04:04:33.154Z,13.4615
2023-05-05T04:05:34.653Z,21.3846
2023-05-05T04:06:36.293Z,27.1538
2023-05-05T04:07:37.927Z,34.6923
2023-05-05T04:08:40.068Z,40.5385
2023-05-05T04:09:41.959Z,31.9231
2023-05-05T04:10:42.907Z,27.3846
2023-05-05T04:11:44.545Z,15.8462
2023-05-05T04:12:46.356Z,17.9231
2023-05-05T04:13:47.871Z,23.6923
2023-05-05T04:14:49.537Z,27.9231
2023-05-05T04:15:51.104Z,37.9231
2023-05-05T04:16:52.716Z,36.4615
2023-05-05T04:17:55.142Z,28.6154
2023-05-05T04:18:56.061Z,23.8462
2023-05-05T04:19:57.720Z,23.7692
2023-05-05T04:20:59.306Z,19.2308
2023-05-05T04:22:00.971Z,24.8462
2023-05-05T04:23:02.643Z,30.6154
2023-05-05T04:24:04.278Z,37.2308
2023-05-05T04:25:05.964Z,32.3846
2023-05-05T04:26:07.514Z,22.3077
2023-05-05T04:27:09.192Z,16.9231
2023-05-05T04:28:10.852Z,18.0000
2023-05-05T04:29:12.523Z,21.7692
2023-05-05T04:30:14.143Z,28.3846
2023-05-05T04:31:15.753Z,32.5385
2023-05-05T04:32:17.296Z,33.0000
2023-05-05T04:33:19.018Z,28.5385
2023-05-05T04:34:20.640Z,20.4615
2023-05-05T04:35:22.300Z,17.0769
2023-05-05T04:36:23.936Z,20.5385
2023-05-05T04:37:25.520Z,26.4615
2023-05-05T04:38:27.301Z,29.7692
2023-05-05T04:39:29.535Z,35.4615
2023-05-05T04:40:30.481Z,29.4615
2023-05-05T04:41:32.049Z,23.4615
2023-05-05T04:42:33.701Z,16.0769
2023-05-05T04:43:35.400Z,19.0769
2023-05-05T04:44:37.474Z,23.1538
2023-05-05T04:45:38.705Z,34.4615
2023-05-05T04:46:40.326Z,30.4615
2023-05-05T04:47:42.045Z,30.7692
2023-05-05T04:48:43.590Z,24.9231
2023-05-05T04:49:45.476Z,15.2308
2023-05-05T04:50:46.971Z,21.0000
2023-05-05T04:51:48.547Z,29.8462
2023-05-05T04:52:51.392Z,31.5385
2023-05-05T04:53:53.091Z,34.9231
2023-05-05T04:54:53.632Z,29.0769
2023-05-05T04:55:55.286Z,25.6154
2023-05-05T04:56:56.918Z,20.9231
2023-05-05T04:57:58.584Z,20.3077
2023-05-05T04:59:00.206Z,26.0769
2023-05-05T05:00:01.893Z,29.3077
2023-05-05T05:01:03.525Z,31.2308
2023-05-05T05:02:05.246Z,36.2308
2023-05-05T05:03:06.854Z,28.7692
2023-05-05T05:04:08.422Z,22.6923
2023-05-05T05:05:10.094Z,19.8462
2023-05-05T05:06:11.723Z,20.0000
2023-05-05T05:07:13.336Z,28.3846
2023-05-05T05:08:15.087Z,25.9231
2023-05-05T05:09:16.575Z,38.5385
2023-05-05T05:10:18.342Z,30.4615
2023-05-05T05:11:19.974Z,21.7692
2023-05-05T05:12:21.563Z,17.6154
2023-05-05T05:13:23.269Z,16.9231
2023-05-05T05:14:24.898Z,24.1538
2023-05-05T05:15:26.463Z,19.8462
2023-05-05T05:16:28.351Z,27.0000
2023-05-05T05:17:29.858Z,29.5385
2023-05-05T05:18:31.521Z,30.6923
2023-05-05T05:19:34.069Z,18.9231
2023-05-05T05:20:35.092Z,16.2308
2023-05-05T05:21:36.425Z,21.9231
2023-05-05T05:22:38.009Z,22.6923
2023-05-05T05:23:39.658Z,27.3846
2023-05-05T05:24:41.363Z,33.6154
2023-05-05T05:25:43.897Z,31.3077
2023-05-05T05:26:44.690Z,29.4615
2023-05-05T05:27:50.136Z,18.4615
2023-05-05T05:28:47.856Z,19.3846
2023-05-05T05:29:49.558Z,25.8462
2023-05-05T05:30:51.228Z,27.9231
2023-05-05T05:31:52.803Z,31.0769
2023-05-05T05:32:54.544Z,35.7692
2023-05-05T05:33:56.191Z,31.1538
2023-05-05T05:34:57.678Z,20.6154
2023-05-05T05:35:59.470Z,18.2308
2023-05-05T05:37:01.076Z,26.7692
2023-05-05T05:38:02.700Z,33.7692
2023-05-05T05:39:04.256Z,32.3846
2023-05-05T05:40:06.032Z,32.9231
2023-05-05T05:41:07.535Z,32.9231
2023-05-05T05:42:10.507Z,25.6923
2023-05-05T05:43:10.923Z,25.6154
2023-05-05T05:44:12.522Z,20.8462
2023-05-05T05:45:14.094Z,37.4615
2023-05-05T05:46:15.886Z,33.0769
2023-05-05T05:47:17.500Z,35.1538
2023-05-05T05:48:20.104Z,31.6154
2023-05-05T05:49:20.598Z,27.3077
2023-05-05T05:50:22.673Z,28.5385
2023-05-05T05:51:24.267Z,37.3846
2023-05-05T05:52:25.978Z,40.6154
2023-05-05T05:53:28.665Z,43.3077
2023-05-05T05:54:29.666Z,42.0769
2023-05-05T05:55:30.492Z,30.2308
2023-05-05T05:56:32.215Z,24.1538
2023-05-05T05:57:34.167Z,29.5385
2023-05-05T05:58:35.413Z,46.2308
2023-05-05T05:59:37.121Z,46.1538
2023-05-05T06:00:38.950Z,46.7692
2023-05-05T06:01:40.445Z,43.3846
2023-05-05T06:02:42.296Z,39.3077
2023-05-05T06:03:43.712Z,45.6923
2023-05-05T06:04:45.285Z,53.4615
2023-05-05T06:05:46.886Z,52.0000
2023-05-05T06:06:48.675Z,57.4615
2023-05-05T06:07:50.229Z,62.0000
2023-05-05T06:08:51.877Z,65.5385
2023-05-05T06:09:53.503Z,61.4615
2023-05-05T06:10:55.272Z,58.0769
2023-05-05T06:11:56.831Z,55.4615
2023-05-05T06:12:58.578Z,66.5385
2023-05-05T06:14:00.071Z,72.3077
2023-05-05T06:15:01.727Z,76.9231
2023-05-05T06:16:03.395Z,73.4615
2023-05-05T06:17:05.085Z,77.5385
2023-05-05T06:18:06.702Z,82.6923
2023-05-05T06:19:08.349Z,90.5385
2023-05-05T06:20:10.058Z,92.8462
2023-05-05T06:21:11.630Z,98.0769
2023-05-05T06:22:13.348Z,97.1538
2023-05-05T06:23:14.886Z,101.2308
2023-05-05T06:24:16.474Z,93.9231
2023-05-05T06:25:18.180Z,98.1538
2023-05-05T06:26:19.818Z,96.1538
2023-05-05T06:27:21.446Z,103.9231
2023-05-05T06:28:23.612Z,112.0000
2023-05-05T06:29:24.694Z,114.1538
2023-05-05T06:30:26.413Z,114.3846
2023-05-05T06:31:27.996Z,118.8462
2023-05-05T06:32:30.164Z,111.1538
2023-05-05T06:33:31.328Z,99.9231
2023-05-05T06:34:32.970Z,95.6154
2023-05-05T06:35:34.596Z,96.6154
2023-05-05T06:36:36.306Z,99.1538
2023-05-05T06:37:37.868Z,107.0000
2023-05-05T06:38:39.571Z,117.6154
2023-05-05T06:39:41.135Z,123.6923
2023-05-05T06:40:42.841Z,122.1538
2023-05-05T06:41:44.478Z,102.4615
2023-05-05T06:42:46.160Z,97.3846
2023-05-05T06:43:48.097Z,107.5385
2023-05-05T06:44:49.469Z,114.5385
2023-05-05T06:45:50.950Z,117.8462
2023-05-05T06:46:52.731Z,130.1538
2023-05-05T06:47:54.295Z,134.9231
2023-05-05T06:48:56.118Z,113.3846
2023-05-05T06:49:57.502Z,103.5385
2023-05-05T06:50:59.201Z,108.3077
2023-05-05T06:52:00.799Z,118.0769
2023-05-05T06:53:02.481Z,124.7692
2023-05-05T06:54:04.152Z,128.4615
2023-05-05T06:55:05.742Z,136.4615
2023-05-05T06:56:07.405Z,116.5385
2023-05-05T06:57:09.054Z,103.6923
2023-05-05T06:58:11.600Z,112.9231
2023-05-05T06:59:12.308Z,122.0000
2023-05-05T07:00:13.898Z,131.6154
2023-05-05T07:01:15.720Z,133.4615
2023-05-05T07:02:17.211Z,137.5385
2023-05-05T07:03:18.914Z,117.3077
2023-05-05T07:04:20.561Z,113.6923
2023-05-05T07:05:22.244Z,123.7692
2023-05-05T07:06:23.765Z,130.3846
2023-05-05T07:07:25.451Z,134.0769
2023-05-05T07:08:27.066Z,136.9231
2023-05-05T07:09:28.743Z,122.8462
2023-05-05T07:10:30.356Z,118.1538
2023-05-05T07:11:31.956Z,128.4615
2023-05-05T07:12:33.668Z,139.6154
2023-05-05T07:13:35.249Z,147.6154
2023-05-05T07:14:37.019Z,138.2308
2023-05-05T07:15:38.684Z,129.6154
2023-05-05T07:16:40.337Z,137.3846
2023-05-05T07:17:41.879Z,148.3077
2023-05-05T07:18:43.586Z,162.2308
2023-05-05T07:19:45.248Z,162.0769
2023-05-05T07:20:46.965Z,149.3077
2023-05-05T07:21:48.437Z,147.3846
2023-05-05T07:22:50.107Z,155.5385
2023-05-05T07:23:52.091Z,165.0000
2023-05-05T07:24:53.462Z,164.2308
2023-05-05T07:25:54.998Z,147.0000
2023-05-05T07:26:56.644Z,146.5385
2023-05-05T07:27:58.272Z,151.5385
2023-05-05T07:29:00.008Z,165.1538
2023-05-05T07:30:02.073Z,165.6154
2023-05-05T07:31:03.263Z,152.6923
2023-05-05T07:32:04.921Z,145.8462
2023-05-05T07:33:06.554Z,154.5385
2023-05-05T07:34:08.519Z,167.9231
2023-05-05T07:35:09.789Z,172.7692
2023-05-05T07:36:11.519Z,163.3846
2023-05-05T07:37:13.104Z,156.9231
2023-05-05T07:38:15.602Z,163.4615
2023-05-05T07:39:17.127Z,171.3846
2023-05-05T07:40:18.095Z,169.5385
2023-05-05T07:41:19.651Z,155.4615
2023-05-05T07:42:21.422Z,155.0000
2023-05-05T07:43:23.015Z,154.4615
2023-05-05T07:44:24.658Z,165.6923
2023-05-05T07:45:26.268Z,165.7692
2023-05-05T07:46:28.016Z,155.0000
2023-05-05T07:47:29.587Z,156.6923
2023-05-05T07:48:31.193Z,171.4615
2023-05-05T07:49:32.811Z,176.0000
2023-05-05T07:50:34.505Z,163.3077
2023-05-05T07:51:36.051Z,151.8462
2023-05-05T07:52:45.313Z,149.9231
2023-05-05T07:53:39.304Z,168.8462
2023-05-05T07:54:40.960Z,179.6923
2023-05-05T07:55:43.033Z,177.8462
2023-05-05T07:56:44.569Z,161.8462
2023-05-05T07:57:45.963Z,153.5385
2023-05-05T07:58:48.488Z,164.5385
2023-05-05T07:59:49.226Z,175.1538
2023-05-05T08:00:50.999Z,177.7692
2023-05-05T08:01:54.791Z,168.5385
2023-05-05T08:02:54.322Z,161.5385
2023-05-05T08:03:55.995Z,161.6154
2023-05-05T08:04:57.596Z,174.7692
2023-05-05T08:05:59.305Z,177.4615
2023-05-05T08:07:00.877Z,169.9231
2023-05-05T08:08:02.567Z,164.6154
2023-05-05T08:09:04.159Z,163.3077
2023-05-05T08:10:05.832Z,178.6154
2023-05-05T08:11:07.479Z,182.6154
2023-05-05T08:12:09.896Z,174.3077
2023-05-05T08:13:10.632Z,165.6154
2023-05-05T08:14:12.278Z,167.6154
2023-05-05T08:15:13.924Z,178.3077
2023-05-05T08:16:15.583Z,189.8462
2023-05-05T08:17:18.144Z,176.3846
2023-05-05T08:18:18.861Z,166.4615
2023-05-05T08:19:28.600Z,179.2308
2023-05-05T08:20:22.148Z,192.6923
2023-05-05T08:21:23.793Z,185.2308
2023-05-05T08:22:25.421Z,173.5385
2023-05-05T08:23:27.048Z,167.6923
2023-05-05T08:24:28.640Z,183.2308
2023-05-05T08:25:30.283Z,194.6923
2023-05-05T08:26:31.933Z,184.3846
2023-05-05T08:27:33.625Z,176.9231
2023-05-05T08:28:35.307Z,175.6154
2023-05-05T08:29:36.827Z,186.7692
2023-05-05T08:30:38.434Z,186.2308
2023-05-05T08:31:40.320Z,175.7692
2023-05-05T08:32:41.871Z,172.5385
2023-05-05T08:33:43.450Z,184.3846
2023-05-05T08:34:45.014Z,199.9231
2023-05-05T08:35:46.706Z,186.8462
2023-05-05T08:36:48.360Z,176.6154
2023-05-05T08:37:49.964Z,173.2308
2023-05-05T08:38:51.593Z,183.5385
2023-05-05T08:39:53.202Z,196.6923
2023-05-05T08:40:54.953Z,187.1538
2023-05-05T08:41:56.590Z,176.6154
2023-05-05T08:42:58.230Z,176.9231
2023-05-05T08:43:59.779Z,193.7692
2023-05-05T08:45:01.425Z,192.1538
2023-05-05T08:46:03.163Z,183.8462
2023-05-05T08:47:04.864Z,177.9231
2023-05-05T08:48:06.460Z,180.5385
2023-05-05T08:49:08.087Z,191.6923
2023-05-05T08:50:09.681Z,191.4615
2023-05-05T08:51:11.256Z,187.9231
2023-05-05T08:52:13.024Z,186.6154
2023-05-05T08:53:14.600Z,190.0769
2023-05-05T08:54:16.222Z,196.0000
2023-05-05T08:55:17.942Z,190.1538
2023-05-05T08:56:19.467Z,187.5385
2023-05-05T08:57:21.185Z,183.0769
2023-05-05T08:58:23.015Z,186.2308
2023-05-05T08:59:24.403Z,185.0000
2023-05-05T09:00:26.095Z,180.7692
2023-05-05T09:01:27.710Z,179.8462
2023-05-05T09:02:29.474Z,188.4615
2023-05-05T09:03:31.065Z,183.1538
2023-05-05T09:04:32.656Z,184.2308
2023-05-05T09:05:34.253Z,193.3077
2023-05-05T09:06:35.924Z,205.6923
2023-05-05T09:07:37.554Z,192.3077
2023-05-05T09:08:39.233Z,187.2308
2023-05-05T09:09:40.818Z,188.4615
2023-05-05T09:10:42.495Z,195.8462
2023-05-05T09:11:44.147Z,202.6923
2023-05-05T09:12:45.818Z,200.3077
2023-05-05T09:13:48.001Z,191.1538
2023-05-05T09:14:49.109Z,190.4615
2023-05-05T09:15:50.685Z,200.7692
2023-05-05T09:16:52.265Z,196.0769
2023-05-05T09:17:53.982Z,192.5385
2023-05-05T09:18:55.673Z,187.6154
2023-05-05T09:19:57.361Z,190.6154
2023-05-05T09:20:59.573Z,196.5385
2023-05-05T09:22:00.550Z,190.5385
2023-05-05T09:23:02.204Z,186.4615
2023-05-05T09:24:08.216Z,190.0000
2023-05-05T09:25:05.682Z,193.6923
2023-05-05T09:26:07.072Z,189.4615
2023-05-05T09:27:08.785Z,185.0769
2023-05-05T09:28:10.428Z,187.2308
2023-05-05T09:29:12.079Z,190.0000
2023-05-05T09:30:13.719Z,186.4615
2023-05-05T09:31:15.445Z,183.3846
2023-05-05T09:32:16.992Z,185.0769
2023-05-05T09:33:18.623Z,191.7692
2023-05-05T09:34:20.342Z,182.4615
2023-05-05T09:35:22.039Z,181.5385
2023-05-05T09:36:24.233Z,186.8462
2023-05-05T09:37:25.216Z,192.9231
2023-05-05T09:38:26.789Z,188.6154
2023-05-05T09:39:28.548Z,180.3846
2023-05-05T09:40:30.138Z,182.1538
2023-05-05T09:41:31.731Z,193.0000
2023-05-05T09:42:33.407Z,186.2308
2023-05-05T09:43:35.096Z,181.9231
2023-05-05T09:44:36.736Z,179.9231
2023-05-05T09:45:38.722Z,183.3846
2023-05-05T09:46:40.049Z,187.1538
2023-05-05T09:47:41.612Z,181.8462
2023-05-05T09:48:43.271Z,180.1538
2023-05-05T09:49:45.688Z,173.6923
2023-05-05T09:50:46.667Z,187.3077
2023-05-05T09:51:49.010Z,183.9231
2023-05-05T09:52:49.807Z,177.3077
2023-05-05T09:53:51.537Z,173.0769
2023-05-05T09:54:53.117Z,181.2308
2023-05-05T09:55:54.835Z,184.6154
2023-05-05T09:56:56.585Z,180.6923
2023-05-05T09:57:58.084Z,171.4615
2023-05-05T09:58:59.678Z,177.3077
2023-05-05T10:00:01.366Z,182.2308
2023-05-05T10:01:03.036Z,184.8462
2023-05-05T10:02:04.709Z,180.7692
2023-05-05T10:03:06.330Z,179.8462
2023-05-05T10:04:07.881Z,187.1538
2023-05-05T10:05:09.551Z,182.3846
2023-05-05T10:06:11.241Z,177.1538
2023-05-05T10:07:12.808Z,173.6923
2023-05-05T10:08:14.454Z,189.4615
2023-05-05T10:09:16.127Z,185.4615
2023-05-05T10:10:17.786Z,180.7692
2023-05-05T10:11:19.393Z,176.8462
2023-05-05T10:12:20.974Z,184.3077
2023-05-05T10:13:22.741Z,185.2308
2023-05-05T10:14:24.260Z,182.6923
2023-05-05T10:15:25.989Z,175.9231
2023-05-05T10:16:29.077Z,177.0769
2023-05-05T10:17:29.352Z,189.9231
2023-05-05T10:18:30.883Z,184.2308
2023-05-05T10:19:32.507Z,179.7692
2023-05-05T10:20:34.260Z,180.0000
2023-05-05T10:21:36.297Z,184.1538
2023-05-05T10:22:37.497Z,194.7692
2023-05-05T10:23:39.090Z,181.6923
2023-05-05T10:24:40.696Z,178.0000
2023-05-05T10:25:42.375Z,179.6923
2023-05-05T10:26:44.089Z,190.2308
2023-05-05T10:27:45.659Z,187.0769
2023-05-05T10:28:47.251Z,180.3846
2023-05-05T10:29:48.949Z,184.5385
2023-05-05T10:30:50.604Z,189.7692
2023-05-05T10:31:54.380Z,184.6923
2023-05-05T10:33:04.034Z,185.2308
2023-05-05T10:33:55.730Z,178.9231
2023-05-05T10:34:57.163Z,190.7692
2023-05-05T10:35:58.874Z,187.6923
2023-05-05T10:37:00.376Z,184.2308
2023-05-05T10:38:02.178Z,182.2308
2023-05-05T10:39:03.612Z,185.2308
2023-05-05T10:40:05.464Z,188.3846
2023-05-05T10:41:06.958Z,182.6154
2023-05-05T10:42:08.622Z,180.8462
2023-05-05T10:43:10.263Z,183.3846
2023-05-05T10:44:11.842Z,192.8462
2023-05-05T10:45:13.484Z,183.6923
2023-05-05T10:46:15.215Z,179.6154
2023-05-05T10:47:16.818Z,187.2308
2023-05-05T10:48:18.441Z,191.4615
2023-05-05T10:49:20.068Z,182.3846
2023-05-05T10:50:21.703Z,176.4615
2023-05-05T10:51:38.640Z,179.8462
2023-05-05T10:52:25.109Z,191.2500
2023-05-05T10:53:26.642Z,184.4615
2023-05-05T10:54:28.345Z,178.0000
2023-05-05T10:55:29.912Z,175.2308
2023-05-05T10:56:31.656Z,188.6154
2023-05-05T10:57:33.704Z,185.8462
2023-05-05T10:58:43.685Z,178.8462
2023-05-05T10:59:36.528Z,174.0769
2023-05-05T11:00:38.240Z,184.3077
2023-05-05T11:01:39.863Z,184.1538
2023-05-05T11:02:41.712Z,181.0000
2023-05-05T11:03:43.040Z,177.6923
2023-05-05T11:04:44.670Z,187.2308
2023-05-05T11:05:46.354Z,188.5385
2023-05-05T11:06:48.041Z,181.3077
2023-05-05T11:07:50.194Z,182.0000
2023-05-05T11:08:51.247Z,189.4615
2023-05-05T11:09:52.927Z,183.3077
2023-05-05T11:10:55.116Z,183.6154
2023-05-05T11:11:56.315Z,178.5385
2023-05-05T11:12:57.999Z,186.1538
2023-05-05T11:13:59.544Z,183.6923
2023-05-05T11:15:01.138Z,179.2308
2023-05-05T11:16:02.749Z,170.5385
2023-05-05T11:17:04.468Z,180.0769
2023-05-05T11:18:07.845Z,186.4615
2023-05-05T11:19:07.762Z,185.0000
2023-05-05T11:20:09.650Z,178.0769
2023-05-05T11:21:11.062Z,176.0769
2023-05-05T11:22:13.245Z,181.0769
2023-05-05T11:23:16.607Z,186.7692
2023-05-05T11:24:16.665Z,183.3077
2023-05-05T11:25:17.617Z,177.6923
2023-05-05T11:26:19.212Z,180.0769
2023-05-05T11:27:20.952Z,186.2308
2023-05-05T11:28:22.546Z,180.6154
2023-05-05T11:29:24.182Z,177.5385
2023-05-05T11:30:25.795Z,178.3077
2023-05-05T11:31:27.521Z,183.8462
2023-05-05T11:32:29.156Z,179.3846
2023-05-05T11:33:30.857Z,177.8462
2023-05-05T11:34:32.383Z,182.8462
2023-05-05T11:35:34.107Z,183.3846
2023-05-05T11:36:35.621Z,180.5385
2023-05-05T11:37:37.725Z,178.0769
2023-05-05T11:38:39.028Z,179.7692
2023-05-05T11:39:40.639Z,179.1538
2023-05-05T11:40:42.206Z,178.4615
2023-05-05T11:41:43.866Z,172.0769
2023-05-05T11:42:45.691Z,173.6923
2023-05-05T11:43:47.196Z,178.6154
2023-05-05T11:44:48.782Z,174.0769
2023-05-05T11:45:50.438Z,170.0000
2023-05-05T11:46:52.052Z,180.6154
2023-05-05T11:47:53.780Z,188.0000
2023-05-05T11:48:55.665Z,178.8462
2023-05-05T11:49:57.081Z,181.3846
2023-05-05T11:50:58.631Z,184.6154
2023-05-05T11:52:00.297Z,188.4615
2023-05-05T11:53:02.021Z,187.2308
2023-05-05T11:54:03.700Z,191.6923
2023-05-05T11:55:05.350Z,195.3077
2023-05-05T11:56:07.013Z,195.3077
2023-05-05T11:57:08.655Z,190.3846
2023-05-05T11:58:10.393Z,193.5385
2023-05-05T11:59:11.946Z,193.5385
2023-05-05T12:00:13.564Z,193.4615
2023-05-05T12:01:15.212Z,195.0000
2023-05-05T12:02:16.968Z,191.3077
2023-05-05T12:03:18.577Z,191.6923
2023-05-05T12:04:20.211Z,191.1538
2023-05-05T12:05:21.905Z,192.5385
2023-05-05T12:06:23.374Z,276.7692
2023-05-05T12:07:25.150Z,539.0000
2023-05-05T12:08:26.698Z,705.6154
2023-05-05T12:09:28.345Z,1060.3846
2023-05-05T12:10:29.971Z,1145.7693
2023-05-05T12:11:31.656Z,1033.6923
2023-05-05T12:12:34.082Z,966.3846
2023-05-05T12:13:35.777Z,885.0000
2023-05-05T12:14:36.563Z,780.9231
2023-05-05T12:15:38.222Z,713.3077